Time;durP1;ratioP1;P1;durP2;ratioP2;P2;SDS_P1;SDS_P2;PMS_P1;PMS_P2;Temp;Humidity;BMP_temperature;BMP_pressure;BME280_temperature;BME280_humidity;BME280_pressure;Samples;Min_cycle;Max_cycle;Signal;HPM_P1;HPM_P2
2022/11/03 00:01:03;;;;;;;9.77;6.60;;;10.40;1.00;;;;;;4936336;29;20898;-66
2022/11/03 00:03:29;;;;;;;12.20;6.67;;;10.40;1.00;;;;;;4921620;29;20486;-66
2022/11/03 00:06:03;;;;;;;11.60;6.90;;;10.40;99.90;;;;;;4933023;29;20187;-66
2022/11/03 00:08:39;;;;;;;17.03;7.20;;;10.40;1.00;;;;;;4932494;29;20166;-67
2022/11/03 00:11:07;;;;;;;14.83;6.60;;;10.50;99.90;;;;;;4932140;29;20446;-67
2022/11/03 00:13:34;;;;;;;9.63;6.63;;;10.50;99.90;;;;;;4932493;29;20419;-66
2022/11/03 00:16:00;;;;;;;7.70;6.83;;;10.50;99.90;;;;;;4921879;29;20428;-67
2022/11/03 00:18:25;;;;;;;10.77;6.87;;;10.50;5.00;;;;;;4912953;29;20768;-67
2022/11/03 00:20:58;;;;;;;9.83;6.60;;;10.40;99.90;;;;;;4915269;29;20235;-66
2022/11/03 00:23:26;;;;;;;10.60;7.97;;;10.40;99.90;;;;;;4938533;29;20209;-67
2022/11/03 00:25:52;;;;;;;7.97;7.07;;;10.40;99.90;;;;;;4953476;28;20558;-67
2022/11/03 00:28:17;;;;;;;11.60;7.00;;;10.40;99.90;;;;;;4939471;28;20490;-67
2022/11/03 00:30:43;;;;;;;7.43;6.50;;;10.30;99.90;;;;;;4933446;29;20729;-67
2022/11/03 00:33:08;;;;;;;10.67;7.37;;;10.30;99.90;;;;;;4933644;29;20182;-67
2022/11/03 00:35:34;;;;;;;9.20;7.00;;;10.90;1.00;;;;;;4934165;29;20206;-67
2022/11/03 00:38:00;;;;;;;9.03;7.23;;;11.20;1.00;;;;;;4933929;29;20254;-67
2022/11/03 00:40:25;;;;;;;10.27;8.10;;;10.60;1.00;;;;;;4932486;29;20632;-67
2022/11/03 00:42:51;;;;;;;13.80;9.00;;;10.30;1.00;;;;;;4933839;29;20275;-66
2022/11/03 00:45:17;;;;;;;12.60;9.53;;;10.10;99.90;;;;;;4934143;29;20191;-66
2022/11/03 00:48:28;;;;;;;11.33;7.53;;;9.90;99.90;;;;;;4933452;29;20167;-67
2022/11/03 00:50:28;;;;;;;8.30;6.20;;;11.30;1.00;;;;;;4932338;28;20190;-66
2022/11/03 00:52:54;;;;;;;8.57;7.07;;;9.50;99.90;;;;;;4933711;29;20411;-66
2022/11/03 00:55:19;;;;;;;13.00;7.20;;;9.50;99.90;;;;;;4933832;28;20190;-67
2022/11/03 00:57:45;;;;;;;8.83;6.33;;;9.60;1.00;;;;;;4933673;29;20544;-66
2022/11/03 01:00:11;;;;;;;8.07;6.87;;;9.70;1.00;;;;;;4933224;29;20226;-65
2022/11/03 01:02:37;;;;;;;10.47;6.00;;;9.80;19.80;;;;;;4932580;29;20294;-66
2022/11/03 01:07:47;;;;;;;11.10;6.57;;;9.90;1.00;;;;;;4933439;29;20182;-66
2022/11/03 01:10:13;;;;;;;9.60;6.00;;;9.90;99.90;;;;;;4933207;29;20407;-65
2022/11/03 01:12:39;;;;;;;19.90;7.43;;;9.80;99.90;;;;;;4933081;29;20238;-66
2022/11/03 01:15:05;;;;;;;10.07;6.10;;;9.80;99.90;;;;;;4933617;29;20225;-66
2022/11/03 01:17:30;;;;;;;21.30;8.43;;;9.80;99.90;;;;;;4947477;29;20266;-67
2022/11/03 01:19:56;;;;;;;13.30;7.73;;;9.80;99.90;;;;;;4933509;28;20497;-66
2022/11/03 01:22:23;;;;;;;12.30;6.23;;;9.70;99.90;;;;;;4932323;29;20179;-65
2022/11/03 01:24:50;;;;;;;13.03;7.27;;;9.80;99.90;;;;;;4933389;29;20175;-66
2022/11/03 01:27:19;;;;;;;9.70;7.17;;;9.80;99.90;;;;;;4933236;29;20478;-66
2022/11/03 01:29:44;;;;;;;30.57;7.27;;;9.70;99.90;;;;;;4933265;29;20415;-66
2022/11/03 01:32:11;;;;;;;8.13;6.70;;;9.70;1.00;;;;;;4932201;29;20461;-66
2022/11/03 01:34:36;;;;;;;11.60;7.87;;;9.80;1.00;;;;;;4932545;29;20647;-66
2022/11/03 01:37:02;;;;;;;12.70;8.60;;;9.90;1.00;;;;;;4932578;29;20443;-66
2022/11/03 01:39:28;;;;;;;18.93;8.67;;;9.80;99.90;;;;;;4932986;29;20175;-66
2022/11/03 01:41:54;;;;;;;15.43;7.87;;;9.80;1.00;;;;;;4932189;29;20176;-66
2022/11/03 01:44:27;;;;;;;15.87;10.37;;;9.70;1.00;;;;;;4932444;29;20262;-65
2022/11/03 01:47:21;;;;;;;12.60;9.23;;;9.70;1.00;;;;;;4932652;29;20647;-66
2022/11/03 01:50:06;;;;;;;14.03;8.20;;;9.60;99.90;;;;;;4932800;29;20423;-66
2022/11/03 01:52:41;;;;;;;22.43;9.63;;;9.50;99.90;;;;;;4931814;29;20810;-66
2022/11/03 01:55:11;;;;;;;17.53;9.90;;;9.50;1.00;;;;;;4932802;29;20434;-66
2022/11/03 01:58:02;;;;;;;14.83;9.73;;;9.50;1.00;;;;;;4932699;29;20410;-66
2022/11/03 02:00:28;;;;;;;17.77;11.20;;;9.50;1.00;;;;;;4931702;29;20541;-65
2022/11/03 02:02:54;;;;;;;15.10;10.07;;;9.40;1.00;;;;;;4931699;29;20770;-66
2022/11/03 02:05:22;;;;;;;16.87;11.27;;;9.40;1.00;;;;;;4932736;29;20195;-66
2022/11/03 02:08:29;;;;;;;17.77;9.60;;;9.40;1.00;;;;;;4932761;29;20417;-66
2022/11/03 02:10:55;;;;;;;14.50;10.47;;;9.50;1.00;;;;;;4910217;29;20478;-66
2022/11/03 02:13:24;;;;;;;10.70;8.43;;;9.30;99.90;;;;;;4911278;29;20456;-66
2022/11/03 02:15:56;;;;;;;15.17;9.40;;;9.30;99.90;;;;;;4911086;29;20447;-66
2022/11/03 02:18:28;;;;;;;12.07;8.90;;;9.20;99.90;;;;;;4910942;29;20412;-66
2022/11/03 02:21:14;;;;;;;24.47;9.37;;;9.20;99.90;;;;;;4910287;29;20415;-66
2022/11/03 02:23:51;;;;;;;11.50;8.13;;;9.30;99.90;;;;;;4911071;29;20430;-66
2022/11/03 02:26:18;;;;;;;9.87;8.20;;;9.30;1.00;;;;;;4911037;29;20510;-66
2022/11/03 02:28:44;;;;;;;12.70;9.13;;;9.40;1.00;;;;;;4911068;29;20515;-66
2022/11/03 02:31:29;;;;;;;18.03;9.57;;;9.30;1.00;;;;;;4910264;29;20522;-66
2022/11/03 02:34:16;;;;;;;17.60;9.17;;;9.30;1.00;;;;;;4900757;29;20183;-66
2022/11/03 02:36:48;;;;;;;11.40;10.07;;;9.40;1.00;;;;;;4911365;29;20542;-66
2022/11/03 02:39:32;;;;;;;13.10;8.57;;;9.40;1.00;;;;;;4911424;29;20905;-66
2022/11/03 02:42:00;;;;;;;9.67;8.07;;;9.40;1.00;;;;;;4923376;29;20433;-66
2022/11/03 02:44:27;;;;;;;10.97;8.97;;;9.20;1.00;;;;;;4932630;29;20411;-65
2022/11/03 02:46:59;;;;;;;13.07;8.50;;;9.20;1.00;;;;;;4932092;29;20533;-66
2022/11/03 02:49:25;;;;;;;12.87;8.00;;;9.20;99.90;;;;;;4932193;28;20470;-65
2022/11/03 02:52:01;;;;;;;10.80;9.00;;;9.20;99.90;;;;;;4931544;29;20465;-66
2022/11/03 02:54:43;;;;;;;19.43;8.50;;;9.30;1.00;;;;;;4932312;29;20955;-66
2022/11/03 02:57:20;;;;;;;11.10;8.73;;;9.20;1.00;;;;;;4932139;29;20418;-65
2022/11/03 02:59:55;;;;;;;18.90;8.50;;;9.10;1.00;;;;;;4932403;29;20950;-66
2022/11/03 03:02:27;;;;;;;10.70;8.57;;;9.10;99.90;;;;;;4930966;29;20437;-66
2022/11/03 03:04:57;;;;;;;10.63;9.30;;;9.10;99.90;;;;;;4932056;29;20421;-66
2022/11/03 03:07:33;;;;;;;10.23;9.00;;;9.30;1.00;;;;;;4932054;29;20943;-66
2022/11/03 03:10:13;;;;;;;12.47;9.07;;;9.10;1.00;;;;;;4932276;29;20420;-65
2022/11/03 03:12:52;;;;;;;12.40;8.50;;;9.30;1.00;;;;;;4931675;29;20454;-66
2022/11/03 03:15:22;;;;;;;9.40;8.50;;;9.10;99.90;;;;;;4935742;29;20441;-66
2022/11/03 03:18:01;;;;;;;9.80;8.30;;;9.10;1.00;;;;;;4935127;29;20414;-66
2022/11/03 03:20:59;;;;;;;8.33;7.20;;;9.10;1.00;;;;;;4934816;29;20418;-65
2022/11/03 03:23:30;;;;;;;9.77;8.00;;;9.10;99.90;;;;;;4934849;29;20501;-66
2022/11/03 03:26:18;;;;;;;10.53;9.50;;;9.10;1.00;;;;;;4935583;29;20772;-66
2022/11/03 03:29:01;;;;;;;11.17;7.47;;;9.10;1.00;;;;;;4935347;29;20489;-66
2022/11/03 03:31:32;;;;;;;11.67;8.77;;;9.10;1.00;;;;;;4934291;29;20466;-66
2022/11/03 03:33:59;;;;;;;13.10;7.90;;;9.10;99.90;;;;;;4934919;29;20776;-66
2022/11/03 03:36:27;;;;;;;11.10;7.57;;;8.70;99.90;;;;;;4935305;29;20951;-66
2022/11/03 03:38:57;;;;;;;10.43;7.63;;;8.60;99.90;;;;;;4935064;29;20419;-65
2022/11/03 03:41:25;;;;;;;8.93;7.77;;;8.50;99.90;;;;;;4934501;29;20395;-65
2022/11/03 03:43:54;;;;;;;10.97;9.67;;;8.60;99.90;;;;;;4934856;29;20758;-65
2022/11/03 03:46:22;;;;;;;18.73;7.70;;;8.70;99.90;;;;;;4934988;29;20513;-66
2022/11/03 03:48:48;;;;;;;27.37;10.90;;;8.60;99.90;;;;;;4934460;29;20419;-66
2022/11/03 03:51:18;;;;;;;51.53;15.10;;;8.30;99.90;;;;;;4934037;29;20817;-65
2022/11/03 03:53:50;;;;;;;50.57;21.87;;;8.20;1.00;;;;;;4934777;29;20178;-66
2022/11/03 03:56:16;;;;;;;44.30;24.87;;;8.20;1.00;;;;;;4935806;29;20974;-66
2022/11/03 03:58:42;;;;;;;59.70;34.60;;;8.50;1.00;;;;;;4936631;29;20407;-65
2022/11/03 04:01:11;;;;;;;75.80;44.17;;;8.70;1.00;;;;;;4927588;29;20488;-65
2022/11/03 04:03:37;;;;;;;60.90;36.43;;;8.80;99.90;;;;;;4916736;29;20199;-66
2022/11/03 04:06:02;;;;;;;65.23;26.03;;;8.90;99.90;;;;;;4917916;29;20435;-66
2022/11/03 04:08:28;;;;;;;42.47;21.50;;;8.70;99.90;;;;;;4917457;29;20267;-66
2022/11/03 04:24:38;;;;;;;92.93;50.03;;;8.80;99.90;;;;;;4914782;29;20912;-66
2022/11/03 04:27:25;;;;;;;60.30;32.63;;;8.90;99.90;;;;;;4914868;29;20431;-66
2022/11/03 04:29:51;;;;;;;68.07;37.97;;;8.80;99.90;;;;;;4915477;29;20640;-66
2022/11/03 04:32:17;;;;;;;61.87;33.20;;;8.80;99.90;;;;;;4914216;29;20547;-66
2022/11/03 04:34:47;;;;;;;46.30;24.63;;;8.90;99.90;;;;;;4914589;29;20498;-65
2022/11/03 04:37:13;;;;;;;45.67;24.53;;;8.50;99.90;;;;;;4914939;29;20251;-65
2022/11/03 04:39:40;;;;;;;64.47;24.93;;;8.30;1.00;;;;;;4915037;29;20831;-65
2022/11/03 04:42:19;;;;;;;61.50;30.10;;;8.20;1.00;;;;;;4914057;29;20420;-65
2022/11/03 04:44:46;;;;;;;42.63;21.43;;;8.20;1.00;;;;;;4915101;29;20419;-65
2022/11/03 04:47:14;;;;;;;45.60;23.27;;;8.30;1.00;;;;;;4914983;29;20888;-66
2022/11/03 04:49:40;;;;;;;39.07;21.80;;;8.30;1.00;;;;;;4914385;29;20412;-66
2022/11/03 04:52:18;;;;;;;56.40;15.70;;;8.40;1.00;;;;;;4913985;29;20777;-66
2022/11/03 04:54:45;;;;;;;62.80;17.73;;;8.30;1.00;;;;;;4914815;29;20412;-66
2022/11/03 04:57:13;;;;;;;46.03;18.80;;;8.10;1.00;;;;;;4914787;29;20518;-66
2022/11/03 04:59:42;;;;;;;95.03;18.73;;;8.00;1.00;;;;;;4914593;29;20492;-65
2022/11/03 05:02:19;;;;;;;51.67;17.10;;;7.80;1.00;;;;;;4930458;29;20968;-65
2022/11/03 05:04:45;;;;;;;37.80;11.73;;;7.80;1.00;;;;;;4933978;29;20485;-65
2022/11/03 05:07:32;;;;;;;48.10;11.50;;;7.90;1.00;;;;;;4934731;29;20740;-66
2022/11/03 05:09:59;;;;;;;26.17;10.93;;;7.90;1.00;;;;;;4939463;29;20425;-65
2022/11/03 05:12:25;;;;;;;35.37;12.60;;;7.80;1.00;;;;;;4951998;28;20459;-65
2022/11/03 05:14:51;;;;;;;32.37;9.73;;;7.80;1.00;;;;;;4952550;28;20413;-65
2022/11/03 05:17:22;;;;;;;28.73;10.43;;;7.80;1.00;;;;;;4952434;28;20201;-66
2022/11/03 05:19:56;;;;;;;49.47;9.83;;;7.90;1.00;;;;;;4952810;28;20493;-65
2022/11/03 05:22:27;;;;;;;26.63;10.07;;;7.90;1.00;;;;;;4951730;28;20432;-65
2022/11/03 05:25:01;;;;;;;15.00;8.87;;;8.00;1.00;;;;;;4952520;28;20933;-65
2022/11/03 05:27:27;;;;;;;19.07;8.00;;;8.00;1.00;;;;;;4952264;28;20446;-65
2022/11/03 05:29:56;;;;;;;11.60;7.23;;;7.90;1.00;;;;;;4952417;28;20410;-65
2022/11/03 05:32:27;;;;;;;13.23;8.80;;;8.20;1.00;;;;;;4950728;29;20484;-65
2022/11/03 05:34:54;;;;;;;19.40;9.50;;;8.30;1.00;;;;;;4951883;28;20497;-65
2022/11/03 05:37:25;;;;;;;31.77;14.40;;;8.40;1.00;;;;;;4951024;28;20413;-65
2022/11/03 05:39:54;;;;;;;22.33;10.57;;;8.60;1.00;;;;;;4952291;28;20780;-65
2022/11/03 05:42:44;;;;;;;11.80;8.70;;;8.60;1.00;;;;;;4951114;28;20414;-66
2022/11/03 05:45:20;;;;;;;27.70;10.33;;;8.40;1.00;;;;;;4951876;28;20450;-65
2022/11/03 05:47:47;;;;;;;17.10;7.90;;;8.30;1.00;;;;;;4951715;29;20409;-66
2022/11/03 05:50:24;;;;;;;24.37;9.47;;;8.30;1.00;;;;;;4951887;28;20406;-65
2022/11/03 05:53:25;;;;;;;15.03;8.33;;;8.30;1.00;;;;;;4951740;28;20410;-65
2022/11/03 05:55:52;;;;;;;44.23;8.50;;;8.20;1.00;;;;;;4952115;28;20708;-65
2022/11/03 05:58:45;;;;;;;26.10;8.67;;;8.00;1.00;;;;;;4952024;29;20451;-65
2022/11/03 06:01:18;;;;;;;18.83;7.77;;;7.80;1.00;;;;;;4941484;28;20474;-64
2022/11/03 06:03:45;;;;;;;23.70;9.00;;;7.80;1.00;;;;;;4932403;28;20417;-64
2022/11/03 06:06:19;;;;;;;25.90;8.40;;;7.80;1.00;;;;;;4932762;29;20957;-65
2022/11/03 06:08:46;;;;;;;17.13;10.67;;;7.70;1.00;;;;;;4932561;29;20466;-64
2022/11/03 06:11:29;;;;;;;27.43;9.23;;;7.90;1.00;;;;;;4931751;29;20541;-65
2022/11/03 06:13:56;;;;;;;24.33;9.00;;;7.80;1.00;;;;;;4932820;29;20418;-65
2022/11/03 06:16:31;;;;;;;21.03;9.30;;;7.80;1.00;;;;;;4931946;29;20538;-65
2022/11/03 06:19:00;;;;;;;40.30;10.00;;;7.80;1.00;;;;;;4932421;29;20414;-65
2022/11/03 06:21:26;;;;;;;23.90;10.40;;;7.90;1.00;;;;;;4932753;29;20438;-65
2022/11/03 06:23:53;;;;;;;39.30;13.67;;;7.90;1.00;;;;;;4932770;29;20916;-66
2022/11/03 06:26:27;;;;;;;49.40;16.00;;;7.90;1.00;;;;;;4932797;29;20304;-67
2022/11/03 06:28:54;;;;;;;48.10;17.90;;;7.70;1.00;;;;;;4932419;29;20410;-67
2022/11/03 06:31:27;;;;;;;47.10;22.63;;;7.80;1.00;;;;;;4931431;29;20455;-67
2022/11/03 06:33:55;;;;;;;113.73;34.03;;;8.00;1.00;;;;;;4931872;29;20753;-67
2022/11/03 06:36:29;;;;;;;57.33;22.27;;;8.30;1.00;;;;;;4932152;29;20517;-67
2022/11/03 06:38:59;;;;;;;40.40;21.30;;;8.30;1.00;;;;;;4932435;29;20452;-67
2022/11/03 06:41:27;;;;;;;73.77;24.47;;;8.40;1.00;;;;;;4931455;29;20414;-67
2022/11/03 06:43:53;;;;;;;71.57;31.63;;;8.30;1.00;;;;;;4931951;29;20426;-67
2022/11/03 06:46:25;;;;;;;91.30;29.20;;;8.30;1.00;;;;;;4932389;29;20430;-67
2022/11/03 06:48:54;;;;;;;63.47;26.50;;;8.30;1.00;;;;;;4933979;29;20575;-66
2022/11/03 06:51:22;;;;;;;59.40;24.70;;;8.20;1.00;;;;;;4935074;29;20450;-67
2022/11/03 06:53:53;;;;;;;43.00;20.40;;;8.30;1.00;;;;;;4935720;29;20438;-67
2022/11/03 06:56:21;;;;;;;45.80;19.33;;;8.40;1.00;;;;;;4936715;29;20455;-67
2022/11/03 06:58:50;;;;;;;37.57;19.67;;;8.40;1.00;;;;;;4933739;28;20399;-68
2022/11/03 07:01:22;;;;;;;39.87;19.90;;;8.50;1.00;;;;;;4933332;28;20497;-68
2022/11/03 07:03:51;;;;;;;37.80;19.87;;;8.20;1.00;;;;;;4947845;28;20501;-67
2022/11/03 07:06:23;;;;;;;96.20;18.00;;;8.20;1.00;;;;;;4954380;28;20444;-68
2022/11/03 07:09:04;;;;;;;51.90;20.07;;;7.90;1.00;;;;;;4939365;28;20438;-67
2022/11/03 07:11:35;;;;;;;52.63;19.20;;;7.70;1.00;;;;;;4933292;29;20465;-67
2022/11/03 07:14:14;;;;;;;46.87;20.23;;;7.80;1.00;;;;;;4935568;29;20420;-67
2022/11/03 07:16:43;;;;;;;44.60;18.90;;;7.80;1.00;;;;;;4935156;29;20445;-66
2022/11/03 07:19:25;;;;;;;46.90;14.00;;;7.80;1.00;;;;;;4934966;29;20903;-67
2022/11/03 07:21:53;;;;;;;47.20;17.30;;;7.60;1.00;;;;;;4934828;29;20407;-67
2022/11/03 07:24:25;;;;;;;40.33;14.90;;;7.60;1.00;;;;;;4935412;29;20406;-67
2022/11/03 07:27:05;;;;;;;32.17;14.67;;;7.80;1.00;;;;;;4935580;29;20472;-67
2022/11/03 07:29:31;;;;;;;31.57;13.97;;;7.80;1.00;;;;;;4935446;29;20929;-66
2022/11/03 07:31:59;;;;;;;35.90;14.37;;;7.90;1.00;;;;;;4934533;29;20569;-67
2022/11/03 07:34:30;;;;;;;27.43;12.37;;;7.80;1.00;;;;;;4934778;29;20510;-67
2022/11/03 07:36:57;;;;;;;28.07;12.50;;;7.90;1.00;;;;;;4935422;29;20442;-67
2022/11/03 07:39:25;;;;;;;25.80;12.40;;;7.80;1.00;;;;;;4927804;29;20884;-65
2022/11/03 07:41:51;;;;;;;36.03;11.37;;;8.00;1.00;;;;;;4915376;29;20439;-67
2022/11/03 07:44:22;;;;;;;44.40;11.50;;;8.00;1.00;;;;;;4915422;29;20470;-68
2022/11/03 07:46:49;;;;;;;21.03;10.60;;;7.90;1.00;;;;;;4915947;29;20194;-66
2022/11/03 07:49:28;;;;;;;41.73;11.37;;;7.80;1.00;;;;;;4915137;29;20479;-67
2022/11/03 07:51:57;;;;;;;19.97;9.60;;;7.70;1.00;;;;;;4915533;29;20861;-67
2022/11/03 07:54:29;;;;;;;26.27;9.83;;;7.70;1.00;;;;;;4922119;29;20415;-66
2022/11/03 07:56:57;;;;;;;26.60;9.40;;;7.80;1.00;;;;;;4932421;29;20521;-67
2022/11/03 07:59:43;;;;;;;24.43;9.20;;;7.90;1.00;;;;;;4944787;28;20411;-68
2022/11/03 08:02:31;;;;;;;27.73;10.37;;;7.90;1.00;;;;;;4936904;28;20436;-67
2022/11/03 08:04:58;;;;;;;17.43;10.43;;;8.00;1.00;;;;;;4935031;29;20402;-67
2022/11/03 08:07:24;;;;;;;32.33;11.00;;;7.90;1.00;;;;;;4934226;29;20411;-68
2022/11/03 08:09:51;;;;;;;43.13;11.77;;;8.10;1.00;;;;;;4934710;29;20784;-66
2022/11/03 08:12:16;;;;;;;24.27;10.43;;;8.40;1.00;;;;;;4937351;29;20471;-67
2022/11/03 08:14:42;;;;;;;22.50;10.30;;;8.30;1.00;;;;;;4937910;29;20433;-65
2022/11/03 08:17:08;;;;;;;23.30;10.57;;;8.30;1.00;;;;;;4942664;29;20199;-67
2022/11/03 08:19:33;;;;;;;18.53;9.97;;;8.20;1.00;;;;;;4928190;29;20274;-67
2022/11/03 08:21:59;;;;;;;50.30;12.30;;;8.00;1.00;;;;;;4924318;29;20599;-67
2022/11/03 08:24:25;;;;;;;16.33;9.70;;;8.20;1.00;;;;;;4930892;29;20179;-67
2022/11/03 08:26:50;;;;;;;20.10;9.40;;;8.30;1.00;;;;;;4932919;29;20254;-67
2022/11/03 08:29:16;;;;;;;28.27;10.57;;;8.30;1.00;;;;;;4929980;29;20175;-66
2022/11/03 08:31:42;;;;;;;29.77;11.40;;;8.30;1.00;;;;;;4924553;29;20953;-67
2022/11/03 08:34:08;;;;;;;75.87;15.63;;;8.20;1.00;;;;;;4922024;29;20172;-67
2022/11/03 08:36:36;;;;;;;30.73;10.73;;;8.30;1.00;;;;;;4922968;29;20447;-66
2022/11/03 08:39:02;;;;;;;16.03;9.67;;;8.20;1.00;;;;;;4931564;29;20259;-67
2022/11/03 08:41:27;;;;;;;25.33;10.10;;;8.20;1.00;;;;;;4926934;29;20441;-67
2022/11/03 08:43:53;;;;;;;19.47;9.50;;;8.30;1.00;;;;;;4923279;29;20415;-67
2022/11/03 08:46:19;;;;;;;17.87;8.50;;;8.30;1.00;;;;;;4924442;29;20195;-67
2022/11/03 08:48:45;;;;;;;23.77;9.40;;;8.10;1.00;;;;;;4930818;29;20191;-68
2022/11/03 08:51:12;;;;;;;12.03;8.67;;;8.30;1.00;;;;;;4923421;29;20676;-68
2022/11/03 08:53:39;;;;;;;16.57;8.83;;;8.30;1.00;;;;;;4923582;29;20410;-68
2022/11/03 08:56:05;;;;;;;19.70;8.67;;;8.50;1.00;;;;;;4938423;28;20438;-67
2022/11/03 08:58:31;;;;;;;14.00;8.80;;;8.30;1.00;;;;;;4929703;29;20485;-68
2022/11/03 09:00:57;;;;;;;10.23;7.87;;;8.10;1.00;;;;;;4923456;29;20529;-67
2022/11/03 09:03:23;;;;;;;37.03;10.90;;;8.20;1.00;;;;;;4925659;29;20182;-68
2022/11/03 09:05:49;;;;;;;24.40;9.83;;;8.40;1.00;;;;;;4924050;29;20194;-67
2022/11/03 09:08:15;;;;;;;22.83;8.90;;;8.50;1.00;;;;;;4963277;23;20490;-64
2022/11/03 09:10:40;;;;;;;24.13;8.60;;;8.60;1.00;;;;;;4982408;28;20170;-67
2022/11/03 09:13:06;;;;;;;15.63;8.30;;;8.70;1.00;;;;;;4980057;28;20259;-64
2022/11/03 09:15:32;;;;;;;9.40;8.00;;;8.90;1.00;;;;;;4981511;28;20510;-65
2022/11/03 09:17:58;;;;;;;11.70;8.17;;;8.90;99.90;;;;;;4974723;28;20995;-67
2022/11/03 09:20:24;;;;;;;16.00;9.50;;;8.70;1.00;;;;;;4959734;28;20405;-63
2022/11/03 09:22:50;;;;;;;13.87;9.57;;;8.60;1.00;;;;;;4961824;28;20264;-65
2022/11/03 09:25:16;;;;;;;21.23;9.20;;;8.40;1.00;;;;;;4962502;28;20178;-67
2022/11/03 09:27:41;;;;;;;37.30;10.40;;;8.30;1.00;;;;;;4963615;28;20457;-68
2022/11/03 09:30:08;;;;;;;15.30;9.07;;;8.30;1.00;;;;;;4963114;28;20170;-67
2022/11/03 09:32:34;;;;;;;13.50;9.10;;;8.20;1.00;;;;;;4959378;28;20575;-66
2022/11/03 09:34:59;;;;;;;11.30;8.90;;;8.30;1.00;;;;;;4960839;28;20422;-68
2022/11/03 09:37:25;;;;;;;21.17;8.60;;;8.30;1.00;;;;;;4962003;28;20178;-66
2022/11/03 09:39:51;;;;;;;21.40;9.50;;;8.40;1.00;;;;;;4962092;28;20170;-67
2022/11/03 09:42:17;;;;;;;14.77;8.60;;;8.60;1.00;;;;;;4960359;28;20177;-68
2022/11/03 09:44:45;;;;;;;12.13;9.27;;;8.50;1.00;;;;;;4962152;28;20270;-68
2022/11/03 09:47:21;;;;;;;32.50;12.00;;;8.50;1.00;;;;;;4962484;28;20437;-68
2022/11/03 09:49:47;;;;;;;11.13;8.30;;;8.70;1.00;;;;;;4960388;28;20431;-65
2022/11/03 09:52:18;;;;;;;10.03;9.13;;;8.90;1.00;;;;;;4959196;28;20445;-68
2022/11/03 09:54:44;;;;;;;31.27;9.57;;;8.90;1.00;;;;;;4960795;28;20175;-68
2022/11/03 09:57:13;;;;;;;21.87;9.70;;;8.90;1.00;;;;;;4961762;28;20429;-67
2022/11/03 09:59:42;;;;;;;13.53;7.83;;;8.90;1.00;;;;;;4960876;28;20273;-67
2022/11/03 10:02:16;;;;;;;16.80;10.47;;;8.70;1.00;;;;;;4959490;28;20413;-68
2022/11/03 10:04:42;;;;;;;30.20;9.30;;;8.70;1.00;;;;;;4960161;28;20994;-67
2022/11/03 10:07:08;;;;;;;11.00;9.07;;;8.70;1.00;;;;;;4960892;28;20433;-68
2022/11/03 10:09:34;;;;;;;27.27;9.83;;;8.90;1.00;;;;;;4961228;28;20210;-68
2022/11/03 10:12:00;;;;;;;20.73;10.20;;;9.10;1.00;;;;;;4960187;28;20991;-67
2022/11/03 10:14:25;;;;;;;32.77;11.43;;;9.30;1.00;;;;;;4959522;28;20198;-69
2022/11/03 10:16:58;;;;;;;57.43;13.43;;;9.40;1.00;;;;;;4961298;28;20824;-67
2022/11/03 10:19:24;;;;;;;24.70;12.20;;;9.40;1.00;;;;;;4958181;28;20204;-67
2022/11/03 10:21:51;;;;;;;22.47;10.60;;;9.40;1.00;;;;;;4960949;28;20416;-65
2022/11/03 10:24:17;;;;;;;12.23;10.90;;;9.30;1.00;;;;;;4962273;28;20496;-65
2022/11/03 10:26:56;;;;;;;16.37;9.87;;;9.30;1.00;;;;;;4965330;28;20576;-67
2022/11/03 10:29:24;;;;;;;12.87;10.07;;;9.50;1.00;;;;;;4963321;28;20942;-66
2022/11/03 10:31:52;;;;;;;16.20;12.70;;;9.60;1.00;;;;;;4963567;28;20473;-67
2022/11/03 10:34:25;;;;;;;12.53;10.77;;;9.50;1.00;;;;;;4976849;28;20559;-67
2022/11/03 10:37:16;;;;;;;33.70;13.90;;;9.60;1.00;;;;;;4970105;28;21030;-66
2022/11/03 10:39:43;;;;;;;29.90;11.60;;;9.50;1.00;;;;;;4968116;28;20420;-70
2022/11/03 10:42:18;;;;;;;17.37;11.70;;;9.50;1.00;;;;;;4974284;28;20501;-68
2022/11/03 10:44:44;;;;;;;49.90;13.63;;;9.40;1.00;;;;;;4975153;28;20412;-68
2022/11/03 10:47:22;;;;;;;26.20;11.03;;;9.60;1.00;;;;;;4974006;28;20439;-68
2022/11/03 10:49:48;;;;;;;24.00;10.30;;;9.60;99.90;;;;;;4975526;28;20260;-69
2022/11/03 10:52:19;;;;;;;26.63;10.60;;;9.70;99.90;;;;;;4973521;28;20643;-68
2022/11/03 10:54:45;;;;;;;28.53;12.13;;;9.60;99.90;;;;;;4965667;28;20173;-69
2022/11/03 10:57:11;;;;;;;19.87;10.00;;;9.60;99.90;;;;;;4975000;28;20740;-65
2022/11/03 10:59:38;;;;;;;127.70;23.00;;;9.60;99.90;;;;;;4959136;28;20410;-69
2022/11/03 11:02:15;;;;;;;180.50;26.13;;;9.50;1.00;;;;;;4972540;28;20181;-67
2022/11/03 11:04:41;;;;;;;263.57;36.80;;;9.80;99.90;;;;;;4976337;28;20416;-67
2022/11/03 11:07:24;;;;;;;31.83;12.10;;;10.00;99.90;;;;;;4975539;28;20488;-67
2022/11/03 11:09:50;;;;;;;14.50;9.60;;;10.00;52.70;;;;;;4973596;28;20527;-69
2022/11/03 11:12:25;;;;;;;16.10;9.43;;;9.90;1.00;;;;;;4974168;28;21143;-68
2022/11/03 11:14:57;;;;;;;21.03;10.33;;;9.80;42.00;;;;;;4960954;28;20441;-69
2022/11/03 11:17:37;;;;;;;20.73;9.07;;;9.80;99.90;;;;;;4955209;28;20910;-69
2022/11/03 11:20:20;;;;;;;43.23;11.63;;;9.90;99.90;;;;;;4955479;28;20433;-70
2022/11/03 11:22:47;;;;;;;36.83;12.23;;;9.80;17.80;;;;;;4957666;28;20458;-67
2022/11/03 11:25:13;;;;;;;26.47;11.70;;;9.90;99.90;;;;;;4975163;28;20437;-68
2022/11/03 11:27:45;;;;;;;16.43;11.87;;;9.90;99.90;;;;;;4968130;28;20464;-67
2022/11/03 11:30:19;;;;;;;30.20;7.77;;;10.00;99.90;;;;;;4974321;28;20397;-68
2022/11/03 11:32:45;;;;;;;19.87;8.80;;;10.50;1.00;;;;;;4970168;28;20463;-69
2022/11/03 11:35:31;;;;;;;28.07;10.90;;;11.70;1.00;;;;;;4966172;28;20426;-67
2022/11/03 11:38:34;;;;;;;75.03;16.07;;;12.70;1.00;;;;;;4952958;28;20968;-68
2022/11/03 11:41:00;;;;;;;65.40;13.77;;;11.50;99.90;;;;;;4971297;28;20437;-69
2022/11/03 11:43:26;;;;;;;48.90;13.57;;;10.70;1.00;;;;;;4964852;28;20436;-68
2022/11/03 11:46:29;;;;;;;47.17;16.17;;;10.40;99.90;;;;;;4973744;28;20190;-68
2022/11/03 11:49:01;;;;;;;55.33;15.13;;;10.00;99.90;;;;;;4956368;28;20434;-68
2022/11/03 11:51:27;;;;;;;57.27;13.93;;;10.10;99.90;;;;;;4954484;29;20468;-69
2022/11/03 11:53:53;;;;;;;62.97;17.20;;;10.00;99.90;;;;;;4955169;28;20748;-68
2022/11/03 11:56:19;;;;;;;23.80;9.87;;;10.10;99.90;;;;;;4954354;28;20175;-67
2022/11/03 11:58:50;;;;;;;46.37;13.20;;;10.00;99.90;;;;;;4954316;28;20778;-70
2022/11/03 12:01:20;;;;;;;17.57;10.90;;;10.00;99.90;;;;;;4972060;28;20201;-68
2022/11/03 12:03:47;;;;;;;14.57;10.30;;;9.70;99.90;;;;;;4973079;28;20489;-70
2022/11/03 12:06:13;;;;;;;141.37;22.97;;;9.70;1.00;;;;;;4973491;28;20507;-68
2022/11/03 12:08:39;;;;;;;220.50;33.40;;;9.90;1.00;;;;;;4973068;28;20582;-68
2022/11/03 12:11:06;;;;;;;207.30;31.17;;;10.20;99.90;;;;;;4972721;28;20515;-70
2022/11/03 12:13:42;;;;;;;50.47;16.20;;;10.30;99.90;;;;;;4973238;28;20208;-68
2022/11/03 12:16:08;;;;;;;34.97;12.93;;;10.30;99.90;;;;;;4973530;28;20423;-69
2022/11/03 12:18:42;;;;;;;32.70;13.80;;;10.20;99.90;;;;;;4972787;28;20457;-69
2022/11/03 12:21:13;;;;;;;66.43;17.77;;;10.20;99.90;;;;;;4972717;28;20408;-68
2022/11/03 12:23:43;;;;;;;171.87;27.10;;;10.30;99.90;;;;;;4972092;28;20449;-68
2022/11/03 12:26:27;;;;;;;90.40;19.60;;;10.40;99.90;;;;;;4958584;28;20434;-69
2022/11/03 12:28:53;;;;;;;54.40;14.57;;;10.40;99.90;;;;;;4953423;28;20438;-68
2022/11/03 12:31:19;;;;;;;66.23;15.70;;;10.50;99.90;;;;;;4952911;28;20457;-68
2022/11/03 12:33:45;;;;;;;84.07;20.00;;;10.50;1.00;;;;;;4954567;28;20556;-68
2022/11/03 12:36:10;;;;;;;37.13;14.77;;;10.50;79.60;;;;;;4965179;28;20170;-69
2022/11/03 12:38:36;;;;;;;35.53;13.10;;;10.50;38.70;;;;;;4953971;28;20656;-68
2022/11/03 12:41:20;;;;;;;29.57;12.13;;;10.50;1.00;;;;;;4953184;29;20265;-68
2022/11/03 12:43:50;;;;;;;41.97;12.87;;;10.50;27.60;;;;;;4955837;28;20186;-69
2022/11/03 12:46:17;;;;;;;38.50;13.50;;;10.50;1.00;;;;;;4972480;28;20424;-69
2022/11/03 12:48:44;;;;;;;54.20;14.30;;;10.50;7.00;;;;;;4972199;28;20744;-70
2022/11/03 12:51:11;;;;;;;44.77;13.90;;;10.50;48.80;;;;;;4972006;28;20539;-69
2022/11/03 12:53:37;;;;;;;41.20;12.90;;;10.50;99.90;;;;;;4969864;28;20414;-69
2022/11/03 12:56:03;;;;;;;121.00;21.20;;;10.40;99.90;;;;;;4966867;28;20436;-69
2022/11/03 12:58:29;;;;;;;93.63;19.93;;;10.40;99.90;;;;;;4968919;28;20252;-68
2022/11/03 13:00:54;;;;;;;76.83;17.63;;;10.30;99.90;;;;;;4961693;28;20174;-68
2022/11/03 13:03:20;;;;;;;20.70;12.27;;;10.30;99.90;;;;;;4967177;28;20177;-68
2022/11/03 13:05:46;;;;;;;32.57;12.30;;;10.30;99.90;;;;;;4972198;28;20272;-68
2022/11/03 13:08:13;;;;;;;79.80;16.70;;;10.40;1.00;;;;;;4963100;28;20210;-70
2022/11/03 13:10:39;;;;;;;105.23;18.87;;;10.40;99.90;;;;;;4952360;28;20525;-69
2022/11/03 13:13:05;;;;;;;49.97;13.90;;;10.40;99.90;;;;;;4959448;28;20614;-66
2022/11/03 13:15:31;;;;;;;43.17;14.60;;;10.40;99.90;;;;;;4968632;28;20409;-68
2022/11/03 13:17:56;;;;;;;15.40;11.37;;;10.40;99.90;;;;;;4952987;28;20422;-67